createdAt,value
2023-01-09T00:00:56.135Z,93487.56
2023-01-09T00:03:22.808Z,93490.53
2023-01-09T00:05:49.571Z,93487.91
2023-01-09T00:08:16.341Z,93483.56
2023-01-09T00:10:42.922Z,93472.22
2023-01-09T00:13:12.271Z,93484.13
2023-01-09T00:15:40.303Z,93485.88
2023-01-09T00:18:07.162Z,93480.09
2023-01-09T00:20:33.842Z,93468.09
2023-01-09T00:23:00.444Z,93462.06
2023-01-09T00:25:27.012Z,93466.78
2023-01-09T00:27:53.671Z,93467.28
2023-01-09T00:30:20.425Z,93466.41
2023-01-09T00:32:47.145Z,93462.72
2023-01-09T00:35:17.532Z,93461.09
2023-01-09T00:37:44.487Z,93462.56
2023-01-09T00:40:13.625Z,93465.63
2023-01-09T00:42:41.039Z,93471.56
2023-01-09T00:45:11.863Z,93465.53
2023-01-09T00:47:48.500Z,93456.81
2023-01-09T00:50:19.391Z,93455.91
2023-01-09T00:52:46.908Z,93458.00
2023-01-09T00:55:15.243Z,93462.34
2023-01-09T00:57:41.917Z,93464.44
2023-01-09T01:00:09.523Z,93451.97
2023-01-09T01:02:36.129Z,93449.69
2023-01-09T01:05:21.520Z,93448.28
2023-01-09T01:07:48.155Z,93451.59
2023-01-09T01:10:20.640Z,93454.81
2023-01-09T01:12:48.425Z,93450.91
2023-01-09T01:15:15.334Z,93456.50
2023-01-09T01:17:42.432Z,93455.03
2023-01-09T01:20:16.405Z,93464.28
2023-01-09T01:22:43.022Z,93461.72
2023-01-09T01:25:11.906Z,93461.59
2023-01-09T01:27:39.061Z,93464.28
2023-01-09T01:30:07.922Z,93461.59
2023-01-09T01:32:34.761Z,93452.97
2023-01-09T01:35:01.411Z,93454.94
2023-01-09T01:37:27.980Z,93465.16
2023-01-09T01:39:54.886Z,93465.41
2023-01-09T01:42:21.913Z,93448.59
2023-01-09T01:45:10.499Z,93450.16
2023-01-09T01:48:12.995Z,93457.19
2023-01-09T01:51:10.311Z,93454.13
2023-01-09T01:53:41.449Z,93454.72
2023-01-09T01:56:20.442Z,93445.97
2023-01-09T01:59:16.171Z,93441.53
2023-01-09T02:01:45.910Z,93444.25
2023-01-09T02:04:12.780Z,93438.31
2023-01-09T02:06:39.968Z,93447.72
2023-01-09T02:09:06.988Z,93436.22
2023-01-09T02:11:34.253Z,93437.97
2023-01-09T02:14:02.046Z,93440.53
2023-01-09T02:16:53.200Z,93445.41
2023-01-09T02:19:57.849Z,93437.47
2023-01-09T02:22:40.835Z,93441.13
2023-01-09T02:25:28.978Z,93429.03
2023-01-09T02:28:20.335Z,93415.53
2023-01-09T02:30:50.127Z,93422.19
2023-01-09T02:33:38.036Z,93425.00
2023-01-09T02:36:11.264Z,93439.31
2023-01-09T02:38:59.134Z,93431.94
2023-01-09T02:41:48.617Z,93427.94
2023-01-09T02:44:26.884Z,93424.81
2023-01-09T02:47:08.574Z,93423.66
2023-01-09T02:49:38.491Z,93429.69
2023-01-09T02:52:32.691Z,93433.25
2023-01-09T02:55:26.907Z,93422.75
2023-01-09T02:58:15.309Z,93422.91
2023-01-09T03:01:22.130Z,93409.19
2023-01-09T03:04:21.168Z,93417.50
2023-01-09T03:07:19.365Z,93412.19
2023-01-09T03:09:50.396Z,93409.78
2023-01-09T03:12:21.591Z,93417.28
2023-01-09T03:14:51.617Z,93406.66
2023-01-09T03:17:32.057Z,93408.38
2023-01-09T03:20:03.161Z,93417.94
2023-01-09T03:22:29.783Z,93424.16
2023-01-09T03:24:56.427Z,93429.59
2023-01-09T03:27:23.153Z,93429.03
2023-01-09T03:29:51.183Z,93430.53
2023-01-09T03:32:17.756Z,93437.34
2023-01-09T03:34:44.337Z,93442.41
2023-01-09T03:37:11.055Z,93442.19
2023-01-09T03:39:37.734Z,93442.13
2023-01-09T03:42:04.575Z,93444.44
2023-01-09T03:44:31.146Z,93444.47
2023-01-09T03:46:57.715Z,93444.63
2023-01-09T03:49:24.377Z,93441.78
2023-01-09T03:51:50.964Z,93451.19
2023-01-09T03:54:17.552Z,93452.97
2023-01-09T03:56:44.190Z,93460.78
2023-01-09T03:59:10.755Z,93457.59
2023-01-09T04:01:37.443Z,93464.94
2023-01-09T04:04:04.523Z,93472.78
2023-01-09T04:06:31.175Z,93464.47
2023-01-09T04:08:57.833Z,93474.38
2023-01-09T04:11:24.465Z,93470.09
2023-01-09T04:13:51.016Z,93477.28
2023-01-09T04:16:17.677Z,93483.72
2023-01-09T04:18:44.266Z,93476.03
2023-01-09T04:21:10.843Z,93487.25
2023-01-09T04:23:37.448Z,93481.97
2023-01-09T04:26:04.177Z,93495.38
2023-01-09T04:28:31.154Z,93501.63
2023-01-09T04:30:57.755Z,93512.94
2023-01-09T04:33:24.321Z,93515.88
2023-01-09T04:35:50.908Z,93537.00
2023-01-09T04:38:18.240Z,93533.75
2023-01-09T04:40:47.106Z,93536.84
2023-01-09T04:43:13.825Z,93539.69
2023-01-09T04:45:40.596Z,93546.94
2023-01-09T04:48:07.181Z,93557.00
2023-01-09T04:50:33.797Z,93564.38
2023-01-09T04:53:00.355Z,93565.03
2023-01-09T04:55:26.981Z,93568.41
2023-01-09T04:57:53.538Z,93576.25
2023-01-09T05:00:20.267Z,93571.13
2023-01-09T05:02:46.880Z,93573.22
2023-01-09T05:05:13.507Z,93570.19
2023-01-09T05:07:40.563Z,93604.78
2023-01-09T05:10:09.098Z,93600.63
2023-01-09T05:12:36.650Z,93604.31
2023-01-09T05:15:04.690Z,93595.19
2023-01-09T05:17:31.273Z,93619.84
2023-01-09T05:19:57.818Z,93609.59
2023-01-09T05:22:24.400Z,93622.53
2023-01-09T05:24:50.957Z,93624.81
2023-01-09T05:27:17.536Z,93619.34
2023-01-09T05:29:44.123Z,93626.97
2023-01-09T05:32:10.729Z,93639.00
2023-01-09T05:34:37.343Z,93626.38
2023-01-09T05:37:03.932Z,93622.53
2023-01-09T05:39:30.470Z,93627.09
2023-01-09T05:41:57.076Z,93621.63
2023-01-09T05:44:23.698Z,93640.72
2023-01-09T05:46:50.322Z,93648.19
2023-01-09T05:49:17.037Z,93639.88
2023-01-09T05:51:43.624Z,93619.66
2023-01-09T05:54:10.444Z,93631.72
2023-01-09T05:56:37.059Z,93644.69
2023-01-09T05:59:03.666Z,93660.56
2023-01-09T06:01:30.384Z,93663.28
2023-01-09T06:03:57.082Z,93661.31
2023-01-09T06:06:24.229Z,93671.44
2023-01-09T06:08:50.822Z,93680.06
2023-01-09T06:11:17.402Z,93687.69
2023-01-09T06:13:43.956Z,93696.69
2023-01-09T06:16:10.591Z,93694.63
2023-01-09T06:18:37.261Z,93701.34
2023-01-09T06:21:04.022Z,93697.19
2023-01-09T06:23:30.612Z,93710.16
2023-01-09T06:25:57.191Z,93722.81
2023-01-09T06:28:23.778Z,93726.09
2023-01-09T06:30:52.068Z,93731.66
2023-01-09T06:33:19.516Z,93743.53
2023-01-09T06:35:46.168Z,93755.41
2023-01-09T06:38:12.774Z,93761.28
2023-01-09T06:40:39.411Z,93775.28
2023-01-09T06:43:06.416Z,93772.72
2023-01-09T06:45:33.280Z,93765.00
2023-01-09T06:47:59.865Z,93773.19
2023-01-09T06:50:26.411Z,93768.19
2023-01-09T06:52:53.014Z,93770.34
2023-01-09T06:55:19.673Z,93780.59
2023-01-09T06:57:46.269Z,93776.47
2023-01-09T07:00:13.237Z,93804.69
2023-01-09T07:02:39.823Z,93788.59
2023-01-09T07:05:08.542Z,93802.63
2023-01-09T07:07:35.141Z,93813.50
2023-01-09T07:10:01.794Z,93829.00
2023-01-09T07:12:28.360Z,93817.31
2023-01-09T07:14:57.473Z,93820.19
2023-01-09T07:17:24.427Z,93817.63
2023-01-09T07:19:51.102Z,93825.31
2023-01-09T07:22:19.065Z,93835.72
2023-01-09T07:24:45.791Z,93837.19
2023-01-09T07:27:12.345Z,93841.31
2023-01-09T07:29:38.917Z,93841.97
2023-01-09T07:32:05.582Z,93842.25
2023-01-09T07:34:32.216Z,93854.28
2023-01-09T07:36:58.850Z,93858.09
2023-01-09T07:39:25.489Z,93856.94
2023-01-09T07:41:52.058Z,93872.06
2023-01-09T07:44:18.900Z,93874.63
2023-01-09T07:46:45.469Z,93876.72
2023-01-09T07:49:12.091Z,93879.38
2023-01-09T07:51:42.923Z,93884.28
2023-01-09T07:54:11.347Z,93885.66
2023-01-09T07:56:38.846Z,93886.94
2023-01-09T07:59:05.478Z,93888.78
2023-01-09T08:01:32.186Z,93899.63
2023-01-09T08:03:59.240Z,93891.94
2023-01-09T08:06:25.839Z,93895.00
2023-01-09T08:08:52.418Z,93892.91
2023-01-09T08:11:19.049Z,93892.78
2023-01-09T08:13:45.623Z,93892.28
2023-01-09T08:16:12.272Z,93897.78
2023-01-09T08:18:38.896Z,93906.69
2023-01-09T08:21:05.594Z,93916.56
2023-01-09T08:23:32.251Z,93915.66
2023-01-09T08:25:58.870Z,93920.84
2023-01-09T08:28:25.517Z,93916.88
2023-01-09T08:30:52.117Z,93914.94
2023-01-09T08:33:18.673Z,93931.59
2023-01-09T08:35:45.804Z,93925.56
2023-01-09T08:38:12.494Z,93930.47
2023-01-09T08:40:39.260Z,93946.19
2023-01-09T08:43:24.988Z,93947.84
2023-01-09T08:46:10.201Z,93937.78
2023-01-09T08:48:36.808Z,93932.88
2023-01-09T08:51:03.528Z,93931.97
2023-01-09T08:53:31.459Z,93926.28
2023-01-09T08:55:58.044Z,93935.59
2023-01-09T08:58:24.629Z,93940.44
2023-01-09T09:00:51.228Z,93942.53
2023-01-09T09:03:17.858Z,93940.19
2023-01-09T09:05:46.700Z,93933.44
2023-01-09T09:08:13.927Z,93937.63
2023-01-09T09:10:40.506Z,93926.75
2023-01-09T09:13:07.144Z,93936.38
2023-01-09T09:15:34.456Z,93951.06
2023-01-09T09:18:03.715Z,93951.78
2023-01-09T09:20:33.607Z,93944.03
2023-01-09T09:23:00.314Z,93951.19
2023-01-09T09:25:28.074Z,93957.63
2023-01-09T09:27:57.514Z,93948.97
2023-01-09T09:30:24.541Z,93960.84
2023-01-09T09:32:51.230Z,93957.47
2023-01-09T09:35:18.230Z,93950.56
2023-01-09T09:37:56.720Z,93950.66
2023-01-09T09:41:28.948Z,93947.84
2023-01-09T09:44:53.489Z,93953.19
2023-01-09T09:47:26.579Z,93953.75
2023-01-09T09:50:25.245Z,93968.25
2023-01-09T09:52:57.420Z,93949.16
2023-01-09T09:55:33.061Z,93947.41
2023-01-09T09:58:02.608Z,93953.44
2023-01-09T10:00:30.131Z,93943.50
2023-01-09T10:03:03.534Z,93943.19
2023-01-09T10:05:43.811Z,93942.66
2023-01-09T10:08:52.046Z,93952.66
2023-01-09T10:11:35.212Z,93940.53
2023-01-09T10:14:08.232Z,93933.00
2023-01-09T10:17:06.335Z,93933.09
2023-01-09T10:19:41.748Z,93937.91
2023-01-09T10:22:33.315Z,93941.38
2023-01-09T10:25:35.012Z,93939.06
2023-01-09T10:28:10.902Z,93937.91
2023-01-09T10:30:49.438Z,93938.06
2023-01-09T10:33:40.748Z,93935.09
2023-01-09T10:36:25.413Z,93928.72
2023-01-09T10:38:56.223Z,93926.88
2023-01-09T10:41:28.111Z,93918.34
2023-01-09T10:44:11.448Z,93926.09
2023-01-09T10:46:55.455Z,93922.06
2023-01-09T10:49:24.148Z,93925.22
2023-01-09T10:51:58.201Z,93912.22
2023-01-09T10:54:24.844Z,93912.69
2023-01-09T10:56:54.827Z,93913.94
2023-01-09T10:59:22.356Z,93919.78
2023-01-09T11:01:49.231Z,93913.16
2023-01-09T11:04:23.428Z,93910.84
2023-01-09T11:09:58.498Z,93910.09
2023-01-09T11:12:30.905Z,93916.59
2023-01-09T11:15:19.414Z,93916.78
2023-01-09T11:17:51.660Z,93909.75
2023-01-09T11:20:27.119Z,93902.47
2023-01-09T11:22:58.889Z,93903.28
2023-01-09T11:25:26.557Z,93917.28
2023-01-09T11:28:02.311Z,93905.25
2023-01-09T11:30:50.937Z,93901.41
2023-01-09T11:33:26.489Z,93907.50
2023-01-09T11:36:10.797Z,93896.91
2023-01-09T11:38:56.185Z,93908.44
2023-01-09T11:41:27.213Z,93905.53
2023-01-09T11:43:57.085Z,93920.50
2023-01-09T11:46:33.059Z,93920.72
2023-01-09T11:49:01.775Z,93921.50
2023-01-09T11:51:31.522Z,93917.44
2023-01-09T11:54:13.252Z,93919.84
2023-01-09T11:56:40.606Z,93914.06
2023-01-09T11:59:17.260Z,93909.00
2023-01-09T12:02:06.708Z,93914.69
2023-01-09T12:04:55.581Z,93918.88
2023-01-09T12:07:22.111Z,93913.00
2023-01-09T12:10:10.088Z,93920.69
2023-01-09T12:12:57.534Z,93909.78
2023-01-09T12:15:32.861Z,93912.34
2023-01-09T12:18:27.118Z,93922.03
2023-01-09T12:21:20.134Z,93919.50
2023-01-09T12:24:36.015Z,93918.50
2023-01-09T12:27:17.682Z,93920.69
2023-01-09T12:29:59.242Z,93908.84
2023-01-09T12:33:08.919Z,93923.78
2023-01-09T12:35:53.734Z,93927.88
2023-01-09T12:38:29.423Z,93928.22
2023-01-09T12:41:45.870Z,93929.69
2023-01-09T12:44:41.486Z,93936.31
2023-01-09T12:47:26.367Z,93928.28
2023-01-09T12:50:14.870Z,93925.09
2023-01-09T12:52:53.399Z,93933.88
2023-01-09T12:55:26.298Z,93937.63
2023-01-09T12:57:59.027Z,93935.09
2023-01-09T13:00:40.554Z,93939.59
2023-01-09T13:03:32.484Z,93940.91
2023-01-09T13:06:01.360Z,93944.94
2023-01-09T13:09:20.764Z,93937.53
2023-01-09T13:11:55.562Z,93932.91
2023-01-09T13:14:44.164Z,93935.50
2023-01-09T13:17:35.017Z,93934.09
2023-01-09T13:20:01.636Z,93941.34
2023-01-09T13:22:29.484Z,93922.72
2023-01-09T13:25:32.444Z,93928.88
2023-01-09T13:28:05.229Z,93930.66
2023-01-09T13:30:59.761Z,93925.25
2023-01-09T13:33:33.542Z,93925.59
2023-01-09T13:36:03.357Z,93923.06
2023-01-09T13:38:32.878Z,93920.47
2023-01-09T13:41:36.605Z,93913.25
2023-01-09T13:44:19.796Z,93914.84
2023-01-09T13:46:53.011Z,93911.72
2023-01-09T13:49:32.633Z,93915.19
2023-01-09T13:52:19.939Z,93911.84
2023-01-09T13:54:55.601Z,93914.78
2023-01-09T13:57:30.042Z,93911.09
2023-01-09T14:00:19.292Z,93917.09
2023-01-09T14:02:46.747Z,93911.13
2023-01-09T14:05:37.084Z,93919.91
2023-01-09T14:08:09.688Z,93916.56
2023-01-09T14:10:49.276Z,93910.59
2023-01-09T14:13:25.232Z,93913.09
2023-01-09T14:16:01.400Z,93909.72
2023-01-09T14:18:31.333Z,93909.41
2023-01-09T14:21:03.945Z,93915.13
2023-01-09T14:23:51.132Z,93919.69
2023-01-09T14:26:22.201Z,93915.81
2023-01-09T14:28:49.258Z,93925.84
2023-01-09T14:31:32.755Z,93924.31
2023-01-09T14:34:37.259Z,93926.41
2023-01-09T14:37:04.568Z,93936.44
2023-01-09T14:39:32.694Z,93926.59
2023-01-09T14:42:07.947Z,93929.84
2023-01-09T14:45:12.051Z,93935.53
2023-01-09T14:47:49.130Z,93936.53
2023-01-09T14:50:30.964Z,93935.63
2023-01-09T14:53:18.513Z,93935.38
2023-01-09T14:55:53.197Z,93945.59
2023-01-09T14:58:27.352Z,93941.56
2023-01-09T15:01:16.474Z,93952.19
2023-01-09T15:03:45.294Z,93945.88
2023-01-09T15:06:24.147Z,93956.84
2023-01-09T15:08:57.060Z,93962.72
2023-01-09T15:11:24.382Z,93956.00
2023-01-09T15:13:53.561Z,93950.81
2023-01-09T15:16:23.044Z,93958.66
2023-01-09T15:18:53.485Z,93968.34
2023-01-09T15:21:26.056Z,93968.03
2023-01-09T15:23:52.893Z,93972.31
2023-01-09T15:26:28.608Z,93984.66
2023-01-09T15:29:10.140Z,93979.81
2023-01-09T15:31:39.981Z,93982.53
2023-01-09T15:34:07.050Z,93984.84
2023-01-09T15:36:37.606Z,93981.66
2023-01-09T15:39:07.097Z,93992.25
2023-01-09T15:41:52.294Z,93993.28
2023-01-09T15:44:26.374Z,93995.69
2023-01-09T15:47:00.820Z,94007.16
2023-01-09T15:49:27.694Z,94005.81
2023-01-09T15:51:54.715Z,94018.03
2023-01-09T15:54:29.229Z,94016.19
2023-01-09T15:57:24.462Z,94020.00
2023-01-09T15:59:52.154Z,94011.78
2023-01-09T16:02:38.701Z,94025.81
2023-01-09T16:05:24.005Z,94032.88
2023-01-09T16:07:51.839Z,94030.22
2023-01-09T16:10:30.382Z,94022.59
2023-01-09T16:12:58.688Z,94031.47
2023-01-09T16:15:33.168Z,94029.09
2023-01-09T16:18:17.990Z,94033.06
2023-01-09T16:20:45.498Z,94039.47
2023-01-09T16:23:31.202Z,94038.38
2023-01-09T16:26:15.342Z,94045.19
2023-01-09T16:28:42.885Z,94050.25
2023-01-09T16:31:27.280Z,94046.06
2023-01-09T16:34:06.316Z,94060.78
2023-01-09T16:36:35.306Z,94060.22
2023-01-09T16:39:03.092Z,94063.03
2023-01-09T16:41:48.793Z,94062.97
2023-01-09T16:44:15.581Z,94069.06
2023-01-09T16:46:44.436Z,94078.41
2023-01-09T16:49:18.570Z,94070.28
2023-01-09T16:51:45.813Z,94081.72
2023-01-09T16:54:12.485Z,94078.09
2023-01-09T16:56:40.897Z,94091.78
2023-01-09T16:59:14.132Z,94082.69
2023-01-09T17:01:41.621Z,94089.25
2023-01-09T17:04:13.145Z,94086.13
2023-01-09T17:06:40.993Z,94091.00
2023-01-09T17:09:17.382Z,94099.22
2023-01-09T17:11:44.535Z,94095.06
2023-01-09T17:14:14.733Z,94105.53
2023-01-09T17:16:45.749Z,94100.94
2023-01-09T17:19:18.810Z,94109.97
2023-01-09T17:21:46.107Z,94107.16
2023-01-09T17:24:31.178Z,94106.78
2023-01-09T17:27:17.461Z,94112.72
2023-01-09T17:29:44.670Z,94112.97
2023-01-09T17:32:16.191Z,94122.09
2023-01-09T17:34:43.180Z,94137.28
2023-01-09T17:37:17.653Z,94140.41
2023-01-09T17:39:45.485Z,94147.06
2023-01-09T17:42:12.419Z,94149.03
2023-01-09T17:44:39.050Z,94149.06
2023-01-09T17:47:07.016Z,94152.16
2023-01-09T17:49:33.681Z,94154.75
2023-01-09T17:52:00.253Z,94166.53
2023-01-09T17:54:26.849Z,94162.69
2023-01-09T17:56:54.216Z,94171.78
2023-01-09T17:59:20.916Z,94177.72
2023-01-09T18:01:48.415Z,94185.22
2023-01-09T18:04:15.144Z,94189.06
2023-01-09T18:06:41.875Z,94196.28
2023-01-09T18:09:14.192Z,94196.44
2023-01-09T18:11:41.293Z,94198.72
2023-01-09T18:14:08.816Z,94191.88
2023-01-09T18:16:35.724Z,94195.59
2023-01-09T18:19:02.775Z,94196.13
2023-01-09T18:21:30.272Z,94187.66
2023-01-09T18:23:58.034Z,94184.56
2023-01-09T18:26:24.757Z,94183.84
2023-01-09T18:28:57.158Z,94196.75
2023-01-09T18:31:25.994Z,94196.00
2023-01-09T18:33:54.613Z,94208.78
2023-01-09T18:36:23.992Z,94208.00
2023-01-09T18:38:52.220Z,94211.44
2023-01-09T18:41:19.698Z,94213.72
2023-01-09T18:43:54.948Z,94220.66
2023-01-09T18:46:24.554Z,94228.22
2023-01-09T18:49:02.406Z,94227.34
2023-01-09T18:51:29.411Z,94223.28
2023-01-09T18:53:56.561Z,94222.56
2023-01-09T18:56:24.720Z,94229.91
2023-01-09T18:58:56.487Z,94244.63
2023-01-09T19:01:23.599Z,94243.47
2023-01-09T19:03:50.335Z,94253.97
2023-01-09T19:06:16.948Z,94252.72
2023-01-09T19:08:48.413Z,94256.22
2023-01-09T19:11:24.340Z,94264.78
2023-01-09T19:13:51.087Z,94266.91
2023-01-09T19:16:18.129Z,94266.91
2023-01-09T19:18:45.016Z,94279.41
2023-01-09T19:21:15.065Z,94280.22
2023-01-09T19:23:43.410Z,94281.59
2023-01-09T19:26:17.587Z,94295.16
2023-01-09T19:28:47.098Z,94297.16
2023-01-09T19:31:14.871Z,94300.56
2023-01-09T19:33:41.905Z,94305.13
2023-01-09T19:36:09.335Z,94300.22
2023-01-09T19:38:36.000Z,94303.72
2023-01-09T19:41:09.095Z,94299.88
2023-01-09T19:43:36.619Z,94303.13
2023-01-09T19:46:07.409Z,94302.25
2023-01-09T19:48:34.031Z,94303.72
2023-01-09T19:51:05.728Z,94309.59
2023-01-09T19:53:34.183Z,94317.50
2023-01-09T19:56:18.365Z,94320.69
2023-01-09T19:58:50.687Z,94328.25
2023-01-09T20:01:19.780Z,94333.78
2023-01-09T20:03:48.575Z,94330.16
2023-01-09T20:06:18.917Z,94341.28
2023-01-09T20:08:50.669Z,94339.69
2023-01-09T20:11:18.726Z,94340.53
2023-01-09T20:13:45.405Z,94340.91
2023-01-09T20:16:21.935Z,94341.31
2023-01-09T20:18:49.214Z,94348.94
2023-01-09T20:23:54.973Z,94341.78
2023-01-09T20:26:22.766Z,94346.31
2023-01-09T20:28:49.434Z,94349.91
2023-01-09T20:31:18.020Z,94353.56
2023-01-09T20:33:45.792Z,94364.94
2023-01-09T20:36:12.462Z,94362.09
2023-01-09T20:38:40.687Z,94367.88
2023-01-09T20:41:22.430Z,94365.81
2023-01-09T20:43:57.638Z,94376.91
2023-01-09T20:46:27.104Z,94373.72
2023-01-09T20:48:58.996Z,94385.28
2023-01-09T20:51:25.860Z,94378.84
2023-01-09T20:53:55.769Z,94397.31
2023-01-09T20:56:31.836Z,94389.78
2023-01-09T20:59:00.197Z,94392.44
2023-01-09T21:01:28.020Z,94389.38
2023-01-09T21:03:56.418Z,94393.31
2023-01-09T21:06:26.078Z,94392.84
2023-01-09T21:08:53.127Z,94393.88
2023-01-09T21:11:21.654Z,94406.16
2023-01-09T21:13:48.924Z,94408.69
2023-01-09T21:16:21.615Z,94411.13
2023-01-09T21:18:49.081Z,94413.09
2023-01-09T21:21:27.256Z,94409.56
2023-01-09T21:23:56.584Z,94408.69
2023-01-09T21:26:27.404Z,94417.28
2023-01-09T21:28:55.373Z,94420.03
2023-01-09T21:31:33.441Z,94426.56
2023-01-09T21:34:07.974Z,94425.81
2023-01-09T21:36:35.407Z,94429.56
2023-01-09T21:39:02.902Z,94433.41
2023-01-09T21:41:48.127Z,94437.34
2023-01-09T21:44:33.351Z,94442.84
2023-01-09T21:47:01.554Z,94445.97
2023-01-09T21:49:31.366Z,94448.44
2023-01-09T21:51:58.166Z,94458.28
2023-01-09T21:54:25.306Z,94464.63
2023-01-09T21:56:52.730Z,94473.53
2023-01-09T21:59:19.810Z,94473.25
2023-01-09T22:01:48.588Z,94471.16
2023-01-09T22:04:17.694Z,94477.47
2023-01-09T22:06:44.400Z,94478.69
2023-01-09T22:09:11.498Z,94485.09
2023-01-09T22:11:40.316Z,94488.41
2023-01-09T22:14:07.402Z,94493.59
2023-01-09T22:16:34.108Z,94491.13
2023-01-09T22:19:00.690Z,94489.63
2023-01-09T22:21:27.285Z,94506.78
2023-01-09T22:23:54.061Z,94505.28
2023-01-09T22:26:21.424Z,94512.31
2023-01-09T22:28:48.926Z,94517.50
2023-01-09T22:31:18.408Z,94515.25
2023-01-09T22:33:50.417Z,94512.72
2023-01-09T22:36:17.569Z,94526.31
2023-01-09T22:38:44.142Z,94522.38
2023-01-09T22:41:11.188Z,94526.44
2023-01-09T22:43:37.868Z,94524.09
2023-01-09T22:46:11.483Z,94541.34
2023-01-09T22:48:39.284Z,94536.63
2023-01-09T22:51:15.245Z,94531.84
2023-01-09T22:53:42.577Z,94544.72
2023-01-09T22:56:13.659Z,94536.16
2023-01-09T22:58:40.753Z,94539.63
2023-01-09T23:01:11.074Z,94542.97
2023-01-09T23:03:38.519Z,94542.38
2023-01-09T23:06:08.050Z,94541.00
2023-01-09T23:08:34.999Z,94548.78
2023-01-09T23:11:03.144Z,94545.53
2023-01-09T23:13:29.771Z,94550.06
2023-01-09T23:15:56.437Z,94546.66
2023-01-09T23:18:23.415Z,94558.72
2023-01-09T23:20:59.664Z,94556.72
2023-01-09T23:23:27.790Z,94553.66
2023-01-09T23:25:59.560Z,94553.34
2023-01-09T23:28:26.513Z,94561.50
2023-01-09T23:30:53.850Z,94568.31
2023-01-09T23:33:21.332Z,94575.25
2023-01-09T23:35:48.598Z,94569.19
2023-01-09T23:38:15.431Z,94568.06
2023-01-09T23:40:42.330Z,94573.91
2023-01-09T23:43:13.843Z,94577.47
2023-01-09T23:45:45.466Z,94573.19
2023-01-09T23:48:13.951Z,94575.50
2023-01-09T23:50:51.890Z,94592.06
2023-01-09T23:53:19.862Z,94587.69
2023-01-09T23:55:46.455Z,94590.47
2023-01-09T23:58:15.893Z,94601.09
